MiSS Christi — WBM6513 — position and weather

sailwx.info

Track history (hours):
 
Tides and Currents Weather Stations Pressure Air Temp Water Temp Dewpoint Dewpoint Depression Visibility Wind Speed Wind Dir Waves Ship Positions

MiSS Christi

Owner: MISS CHRISTI INC, WEST HILLS, CA. More information available from US FCC via Universal Licensing System and Coast Guard Vessel Documentation Center.

Last reported at 2017-Nov-16 23:13 UTC. Time now 2017-Nov-18 15:29 UTC.
Position N 33°27' W 118°29'.

Length 15 m; draft 1.5 m.

Type: Passenger vessel. MMSI: 367311590.

Date/timePositionNaut miles runAvg speedWind from/ knotsBaromVisibWave heightAir tempDewpointWater temp
2017-Nov-16 23:13N 33°27' W 118°29'0 0.0
2017-Nov-16 22:47N 33°27' W 118°29'0 0.0
2017-Nov-16 22:29N 33°27' W 118°29'0 0.0
2017-Nov-16 22:00N 33°27' W 118°29'0 0.0
2017-Nov-16 21:30N 33°27' W 118°29'0 0.0
2017-Nov-16 21:01N 33°27' W 118°29'0 0.0
2017-Nov-16 20:28N 33°27' W 118°29'0 0.0
2017-Nov-16 19:51N 33°27' W 118°29'0 0.0
2017-Nov-16 19:30N 33°27' W 118°29'0 0.0
2017-Nov-16 19:00N 33°27' W 118°29'0 0.0
2017-Nov-16 18:29N 33°27' W 118°29'1 0.9
2017-Nov-16 17:10N 33°28' W 118°28'318.0
2017-Nov-16 17:01N 33°30' W 118°26'917.7
2017-Nov-16 16:31N 33°37' W 118°20'13 0.8
2017-Nov-15 23:32N 33°27' W 118°29'0 0.0
2017-Nov-15 23:19N 33°27' W 118°29'0 0.0
2017-Nov-15 21:20N 33°27' W 118°29'0 0.0
2017-Nov-15 20:58N 33°27' W 118°29'0 0.0
2017-Nov-15 20:26N 33°27' W 118°29'0 0.0
2017-Nov-15 19:57N 33°27' W 118°29'0 0.0
2017-Nov-15 18:35N 33°27' W 118°29'0 0.1
2017-Nov-15 18:30N 33°27' W 118°29'0 0.0
2017-Nov-15 17:57N 33°27' W 118°29'0 0.0
2017-Nov-15 17:19N 33°27' W 118°29'0 0.0
2017-Nov-15 16:59N 33°27' W 118°29'1417.3
2017-Nov-15 16:11N 33°38' W 118°19'318.5
2017-Nov-15 16:00N 33°41' W 118°17'17 1.1
2017-Nov-14 23:35N 33°27' W 118°29'0 1.4
2017-Nov-14 23:30N 33°27' W 118°29'2 0.3
2017-Nov-14 16:42N 33°28' W 118°27'318.4
2017-Nov-14 16:30N 33°31' W 118°24'15 0.9
2017-Nov-14 00:42N 33°44' W 118°16'20 6.6
2017-Nov-13 21:38N 33°27' W 118°29'0 0.0
2017-Nov-12 20:50N 33°27' W 118°29'0 0.0
2017-Nov-12 19:20N 33°27' W 118°29'515.5
2017-Nov-12 19:00N 33°31' W 118°25'8 0.2
2017-Nov-10 16:50N 33°38' W 118°19'1 0.0
2017-Nov-08 16:04N 33°37' W 118°20'120.2
2017-Nov-08 16:00N 33°37' W 118°19'0 0.0
2017-Nov-07 16:03N 33°38' W 118°19'119.0
2017-Nov-07 15:59N 33°39' W 118°18'  
Track history (hours):
 
Tides and Currents Weather Stations Pressure Air Temp Water Temp Dewpoint Dewpoint Depression Visibility Wind Speed Wind Dir Waves Ship Positions

MiSS Christi

Owner: MISS CHRISTI INC, WEST HILLS, CA. More information available from US FCC via Universal Licensing System and Coast Guard Vessel Documentation Center.

Last reported at 2017-Nov-16 23:13 UTC. Time now 2017-Nov-18 15:29 UTC.
Position N 33°27' W 118°29'.

Length 15 m; draft 1.5 m.

Type: Passenger vessel. MMSI: 367311590.

Date/timePositionNaut miles runAvg speedWind from/ knotsBaromVisibWave heightAir tempDewpointWater temp
2017-Nov-16 23:13N 33°27' W 118°29'0 0.0
2017-Nov-16 22:47N 33°27' W 118°29'0 0.0
2017-Nov-16 22:29N 33°27' W 118°29'0 0.0
2017-Nov-16 22:00N 33°27' W 118°29'0 0.0
2017-Nov-16 21:30N 33°27' W 118°29'0 0.0
2017-Nov-16 21:01N 33°27' W 118°29'0 0.0
2017-Nov-16 20:28N 33°27' W 118°29'0 0.0
2017-Nov-16 19:51N 33°27' W 118°29'0 0.0
2017-Nov-16 19:30N 33°27' W 118°29'0 0.0
2017-Nov-16 19:00N 33°27' W 118°29'0 0.0
2017-Nov-16 18:29N 33°27' W 118°29'1 0.9
2017-Nov-16 17:10N 33°28' W 118°28'318.0
2017-Nov-16 17:01N 33°30' W 118°26'917.7
2017-Nov-16 16:31N 33°37' W 118°20'13 0.8
2017-Nov-15 23:32N 33°27' W 118°29'0 0.0
2017-Nov-15 23:19N 33°27' W 118°29'0 0.0
2017-Nov-15 21:20N 33°27' W 118°29'0 0.0
2017-Nov-15 20:58N 33°27' W 118°29'0 0.0
2017-Nov-15 20:26N 33°27' W 118°29'0 0.0
2017-Nov-15 19:57N 33°27' W 118°29'0 0.0
2017-Nov-15 18:35N 33°27' W 118°29'0 0.1
2017-Nov-15 18:30N 33°27' W 118°29'0 0.0
2017-Nov-15 17:57N 33°27' W 118°29'0 0.0
2017-Nov-15 17:19N 33°27' W 118°29'0 0.0
2017-Nov-15 16:59N 33°27' W 118°29'1417.3
2017-Nov-15 16:11N 33°38' W 118°19'318.5
2017-Nov-15 16:00N 33°41' W 118°17'17 1.1
2017-Nov-14 23:35N 33°27' W 118°29'0 1.4
2017-Nov-14 23:30N 33°27' W 118°29'2 0.3
2017-Nov-14 16:42N 33°28' W 118°27'318.4
2017-Nov-14 16:30N 33°31' W 118°24'15 0.9
2017-Nov-14 00:42N 33°44' W 118°16'20 6.6
2017-Nov-13 21:38N 33°27' W 118°29'0 0.0
2017-Nov-12 20:50N 33°27' W 118°29'0 0.0
2017-Nov-12 19:20N 33°27' W 118°29'515.5
2017-Nov-12 19:00N 33°31' W 118°25'8 0.2
2017-Nov-10 16:50N 33°38' W 118°19'1 0.0
2017-Nov-08 16:04N 33°37' W 118°20'120.2
2017-Nov-08 16:00N 33°37' W 118°19'0 0.0
2017-Nov-07 16:03N 33°38' W 118°19'119.0
2017-Nov-07 15:59N 33°39' W 118°18'  

Dump ship's entire track history